createdAt,value
2018-03-01T00:00:34.909Z,-8.33
2018-03-01T00:01:34.889Z,-8.36
2018-03-01T00:02:34.864Z,-8.39
2018-03-01T00:03:34.833Z,-8.26
2018-03-01T00:04:34.814Z,-8.37
2018-03-01T00:05:34.783Z,-8.34
2018-03-01T00:06:34.759Z,-8.40
2018-03-01T00:07:34.734Z,-8.39
2018-03-01T00:08:34.714Z,-8.36
2018-03-01T00:09:34.683Z,-8.34
2018-03-01T00:10:34.658Z,-8.42
2018-03-01T00:11:34.630Z,-8.37
2018-03-01T00:12:34.613Z,-8.30
2018-03-01T00:13:34.585Z,-8.34
2018-03-01T00:14:34.558Z,-8.31
2018-03-01T00:15:34.532Z,-8.36
2018-03-01T00:16:34.504Z,-8.33
2018-03-01T00:17:34.507Z,-8.34
2018-03-01T00:18:34.453Z,-8.37
2018-03-01T00:19:34.432Z,-8.36
2018-03-01T00:20:34.400Z,-8.34
2018-03-01T00:21:34.380Z,-8.34
2018-03-01T00:22:34.351Z,-8.34
2018-03-01T00:23:34.330Z,-8.39
2018-03-01T00:24:34.307Z,-8.40
2018-03-01T00:25:34.273Z,-8.37
2018-03-01T00:26:34.252Z,-8.39
2018-03-01T00:27:34.221Z,-8.44
2018-03-01T00:28:34.202Z,-8.52
2018-03-01T00:29:34.174Z,-8.54
2018-03-01T00:30:34.153Z,-8.58
2018-03-01T00:31:34.123Z,-8.57
2018-03-01T00:32:34.102Z,-8.52
2018-03-01T00:33:34.074Z,-8.51
2018-03-01T00:34:34.124Z,-8.54
2018-03-01T00:35:34.019Z,-8.51
2018-03-01T00:36:34.004Z,-8.60
2018-03-01T00:37:33.977Z,-8.63
2018-03-01T00:38:33.955Z,-8.68
2018-03-01T00:39:33.916Z,-8.72
2018-03-01T00:40:33.898Z,-8.73
2018-03-01T00:41:33.868Z,-8.66
2018-03-01T00:42:33.847Z,-8.72
2018-03-01T00:43:33.815Z,-8.69
2018-03-01T00:44:33.797Z,-8.63
2018-03-01T00:45:33.764Z,-8.69
2018-03-01T00:46:33.743Z,-8.73
2018-03-01T00:47:33.714Z,-8.69
2018-03-01T00:48:33.694Z,-8.70
2018-03-01T00:49:33.666Z,-8.72
2018-03-01T00:50:33.638Z,-8.76
2018-03-01T00:51:33.615Z,-8.80
2018-03-01T00:52:33.588Z,-8.83
2018-03-01T00:53:33.565Z,-8.80
2018-03-01T00:54:33.538Z,-8.87
2018-03-01T00:55:33.512Z,-8.89
2018-03-01T00:56:33.484Z,-8.93
2018-03-01T00:57:33.457Z,-8.81
2018-03-01T00:58:33.432Z,-8.91
2018-03-01T00:59:33.409Z,-8.93
2018-03-01T01:00:33.381Z,-8.90
2018-03-01T01:01:33.357Z,-8.93
2018-03-01T01:02:33.333Z,-8.93
2018-03-01T01:03:33.304Z,-8.93
2018-03-01T01:04:33.281Z,-8.98
2018-03-01T01:05:33.255Z,-8.91
2018-03-01T01:06:33.230Z,-8.94
2018-03-01T01:07:33.202Z,-8.93
2018-03-01T01:08:33.178Z,-8.96
2018-03-01T01:09:33.155Z,-8.96
2018-03-01T01:10:33.128Z,-8.96
2018-03-01T01:11:33.103Z,-9.02
2018-03-01T01:12:33.074Z,-9.02
2018-03-01T01:13:33.051Z,-9.07
2018-03-01T01:14:33.025Z,-9.05
2018-03-01T01:15:32.995Z,-9.01
2018-03-01T01:16:32.971Z,-9.05
2018-03-01T01:17:32.948Z,-9.07
2018-03-01T01:18:32.922Z,-9.08
2018-03-01T01:19:32.894Z,-9.05
2018-03-01T01:20:32.873Z,-9.01
2018-03-01T01:21:32.844Z,-9.08
2018-03-01T01:22:32.820Z,-9.04
2018-03-01T01:23:32.794Z,-9.08
2018-03-01T01:24:32.772Z,-9.10
2018-03-01T01:25:32.745Z,-9.04
2018-03-01T01:26:32.715Z,-9.00
2018-03-01T01:27:32.690Z,-9.07
2018-03-01T01:28:32.666Z,-9.07
2018-03-01T01:29:32.642Z,-9.07
2018-03-01T01:30:32.616Z,-9.07
2018-03-01T01:31:32.588Z,-9.08
2018-03-01T01:32:32.561Z,-9.19
2018-03-01T01:33:32.538Z,-9.12
2018-03-01T01:34:32.509Z,-9.23
2018-03-01T01:35:32.485Z,-9.11
2018-03-01T01:36:32.461Z,-9.15
2018-03-01T01:37:32.432Z,-9.15
2018-03-01T01:38:32.408Z,-9.18
2018-03-01T01:39:32.385Z,-9.15
2018-03-01T01:40:32.356Z,-9.23
2018-03-01T01:41:32.331Z,-9.25
2018-03-01T01:42:32.318Z,-9.19
2018-03-01T01:43:32.281Z,-9.20
2018-03-01T01:44:32.254Z,-9.30
2018-03-01T01:45:32.235Z,-9.32
2018-03-01T01:46:32.202Z,-9.37
2018-03-01T01:47:32.182Z,-9.33
2018-03-01T01:48:32.150Z,-9.28
2018-03-01T01:49:32.126Z,-9.30
2018-03-01T01:50:32.115Z,-9.37
2018-03-01T01:51:32.074Z,-9.36
2018-03-01T01:52:32.052Z,-9.29
2018-03-01T01:53:32.022Z,-9.37
2018-03-01T01:54:32.001Z,-9.30
2018-03-01T01:55:31.971Z,-9.40
2018-03-01T01:56:31.946Z,-9.39
2018-03-01T01:57:31.918Z,-9.48
2018-03-01T01:58:31.894Z,-9.48
2018-03-01T01:59:31.980Z,-9.47
2018-03-01T02:00:31.838Z,-9.32
2018-03-01T02:01:31.815Z,-9.39
2018-03-01T02:02:31.792Z,-9.47
2018-03-01T02:03:31.766Z,-9.41
2018-03-01T02:04:31.838Z,-9.44
2018-03-01T02:05:31.711Z,-9.39
2018-03-01T02:06:31.687Z,-9.45
2018-03-01T02:07:31.661Z,-9.47
2018-03-01T02:08:31.637Z,-9.56
2018-03-01T02:09:31.616Z,-9.51
2018-03-01T02:10:31.583Z,-9.54
2018-03-01T02:11:31.559Z,-9.56
2018-03-01T02:12:31.531Z,-9.63
2018-03-01T02:13:31.511Z,-9.58
2018-03-01T02:14:31.481Z,-9.56
2018-03-01T02:15:31.458Z,-9.63
2018-03-01T02:16:31.432Z,-9.68
2018-03-01T02:17:31.403Z,-9.66
2018-03-01T02:18:31.376Z,-9.66
2018-03-01T02:19:31.350Z,-9.68
2018-03-01T02:20:31.325Z,-9.63
2018-03-01T02:21:31.301Z,-9.65
2018-03-01T02:22:31.276Z,-9.63
2018-03-01T02:23:31.250Z,-9.65
2018-03-01T02:24:31.224Z,-9.61
2018-03-01T02:25:31.196Z,-9.68
2018-03-01T02:26:31.175Z,-9.62
2018-03-01T02:27:31.146Z,-9.59
2018-03-01T02:28:31.122Z,-9.56
2018-03-01T02:29:31.113Z,-9.59
2018-03-01T02:30:31.074Z,-9.65
2018-03-01T02:31:31.044Z,-9.66
2018-03-01T02:32:31.016Z,-9.65
2018-03-01T02:33:30.996Z,-9.62
2018-03-01T02:34:30.970Z,-9.61
2018-03-01T02:35:30.941Z,-9.63
2018-03-01T02:36:30.917Z,-9.69
2018-03-01T02:37:30.891Z,-9.66
2018-03-01T02:38:30.862Z,-9.65
2018-03-01T02:39:30.835Z,-9.72
2018-03-01T02:40:30.816Z,-9.62
2018-03-01T02:41:30.786Z,-9.66
2018-03-01T02:42:30.768Z,-9.74
2018-03-01T02:43:30.733Z,-9.65
2018-03-01T02:44:30.710Z,-9.71
2018-03-01T02:45:30.677Z,-9.68
2018-03-01T02:46:30.652Z,-9.65
2018-03-01T02:47:30.630Z,-9.62
2018-03-01T02:48:30.614Z,-9.61
2018-03-01T02:49:30.575Z,-9.71
2018-03-01T02:50:30.551Z,-9.71
2018-03-01T02:51:30.526Z,-9.69
2018-03-01T02:52:30.506Z,-9.71
2018-03-01T02:53:30.483Z,-9.77
2018-03-01T02:54:30.446Z,-9.72
2018-03-01T02:55:30.422Z,-9.83
2018-03-01T02:56:30.394Z,-9.84
2018-03-01T02:57:30.370Z,-9.76
2018-03-01T02:58:30.376Z,-9.77
2018-03-01T02:59:30.317Z,-9.79
2018-03-01T03:00:30.291Z,-9.84
2018-03-01T03:01:30.269Z,-9.77
2018-03-01T03:02:30.239Z,-9.83
2018-03-01T03:03:30.215Z,-9.90
2018-03-01T03:04:30.184Z,-9.89
2018-03-01T03:05:30.161Z,-9.94
2018-03-01T03:06:30.174Z,-9.89
2018-03-01T03:07:30.109Z,-9.84
2018-03-01T03:08:30.082Z,-9.97
2018-03-01T03:09:30.056Z,-9.89
2018-03-01T03:10:30.035Z,-9.90
2018-03-01T03:11:30.006Z,-9.83
2018-03-01T03:12:29.980Z,-9.89
2018-03-01T03:13:29.964Z,-9.84
2018-03-01T03:14:29.933Z,-9.79
2018-03-01T03:15:29.900Z,-9.89
2018-03-01T03:16:29.875Z,-9.90
2018-03-01T03:17:29.852Z,-9.81
2018-03-01T03:18:29.821Z,-9.87
2018-03-01T03:19:29.797Z,-9.97
2018-03-01T03:20:29.772Z,-9.95
2018-03-01T03:21:29.746Z,-9.94
2018-03-01T03:22:29.725Z,-9.84
2018-03-01T03:23:29.692Z,-9.86
2018-03-01T03:24:29.669Z,-9.95
2018-03-01T03:25:29.645Z,-9.83
2018-03-01T03:26:29.614Z,-9.90
2018-03-01T03:27:29.595Z,-9.90
2018-03-01T03:28:29.564Z,-9.97
2018-03-01T03:29:29.542Z,-9.92
2018-03-01T03:30:29.528Z,-9.90
2018-03-01T03:31:29.496Z,-9.81
2018-03-01T03:32:29.461Z,-9.79
2018-03-01T03:33:29.445Z,-9.92
2018-03-01T03:34:29.407Z,-9.94
2018-03-01T03:35:29.384Z,-9.89
2018-03-01T03:36:29.356Z,-9.95
2018-03-01T03:37:29.384Z,-9.90
2018-03-01T03:38:29.300Z,-9.90
2018-03-01T03:39:29.274Z,-9.81
2018-03-01T03:40:29.249Z,-9.90
2018-03-01T03:41:29.223Z,-9.90
2018-03-01T03:42:29.202Z,-9.92
2018-03-01T03:43:29.168Z,-9.95
2018-03-01T03:44:29.154Z,-10.05
2018-03-01T03:45:29.121Z,-9.98
2018-03-01T03:46:29.095Z,-9.95
2018-03-01T03:47:29.065Z,-10.00
2018-03-01T03:48:29.042Z,-10.07
2018-03-01T03:49:29.019Z,-10.07
2018-03-01T03:50:28.995Z,-9.98
2018-03-01T03:51:28.964Z,-9.95
2018-03-01T03:52:28.936Z,-9.97
2018-03-01T03:53:28.920Z,-10.02
2018-03-01T03:54:28.889Z,-10.07
2018-03-01T03:55:28.862Z,-10.10
2018-03-01T03:56:28.833Z,-10.07
2018-03-01T03:57:28.805Z,-10.01
2018-03-01T03:58:28.782Z,-10.10
2018-03-01T03:59:28.753Z,-10.15
2018-03-01T04:00:28.727Z,-10.04
2018-03-01T04:01:28.702Z,-10.01
2018-03-01T04:02:28.676Z,-10.10
2018-03-01T04:03:28.649Z,-10.01
2018-03-01T04:04:28.622Z,-10.08
2018-03-01T04:05:28.595Z,-10.15
2018-03-01T04:06:28.576Z,-10.05
2018-03-01T04:07:28.543Z,-10.12
2018-03-01T04:08:28.519Z,-10.13
2018-03-01T04:09:28.491Z,-10.19
2018-03-01T04:10:28.466Z,-10.13
2018-03-01T04:11:28.438Z,-10.25
2018-03-01T04:12:28.412Z,-10.25
2018-03-01T04:13:28.386Z,-10.25
2018-03-01T04:14:28.361Z,-10.26
2018-03-01T04:15:28.339Z,-10.21
2018-03-01T04:16:28.314Z,-10.31
2018-03-01T04:17:28.285Z,-10.23
2018-03-01T04:18:28.255Z,-10.31
2018-03-01T04:19:28.232Z,-10.31
2018-03-01T04:20:28.201Z,-10.28
2018-03-01T04:21:28.176Z,-10.33
2018-03-01T04:22:28.150Z,-10.23
2018-03-01T04:23:28.124Z,-10.18
2018-03-01T04:24:28.099Z,-10.19
2018-03-01T04:25:28.074Z,-10.28
2018-03-01T04:26:28.045Z,-10.26
2018-03-01T04:27:28.026Z,-10.26
2018-03-01T04:28:27.994Z,-10.19
2018-03-01T04:29:27.964Z,-10.23
2018-03-01T04:30:27.994Z,-10.21
2018-03-01T04:31:27.913Z,-10.21
2018-03-01T04:32:27.946Z,-10.19
2018-03-01T04:33:27.866Z,-10.23
2018-03-01T04:34:27.844Z,-10.30
2018-03-01T04:35:27.811Z,-10.25
2018-03-01T04:36:27.784Z,-10.39
2018-03-01T04:37:27.755Z,-10.26
2018-03-01T04:38:27.737Z,-10.26
2018-03-01T04:39:27.702Z,-10.30
2018-03-01T04:40:27.829Z,-10.39
2018-03-01T04:41:27.654Z,-10.39
2018-03-01T04:42:27.631Z,-10.36
2018-03-01T04:43:27.599Z,-10.36
2018-03-01T04:44:27.569Z,-10.44
2018-03-01T04:45:27.797Z,-10.50
2018-03-01T04:46:27.524Z,-10.46
2018-03-01T04:47:27.494Z,-10.50
2018-03-01T04:48:27.569Z,-10.51
2018-03-01T04:49:27.445Z,-10.55
2018-03-01T04:50:27.500Z,-10.43
2018-03-01T04:51:27.390Z,-10.47
2018-03-01T04:52:27.523Z,-10.50
2018-03-01T04:53:27.335Z,-10.50
2018-03-01T04:54:27.310Z,-10.50
2018-03-01T04:55:27.287Z,-10.51
2018-03-01T04:56:27.257Z,-10.55
2018-03-01T04:57:27.233Z,-10.40
2018-03-01T04:58:27.206Z,-10.54
2018-03-01T04:59:27.176Z,-10.41
2018-03-01T05:00:27.155Z,-10.46
2018-03-01T05:01:27.129Z,-10.50
2018-03-01T05:02:27.098Z,-10.50
2018-03-01T05:03:27.074Z,-10.52
2018-03-01T05:04:27.055Z,-10.62
2018-03-01T05:05:27.021Z,-10.57
2018-03-01T05:06:26.998Z,-10.61
2018-03-01T05:07:26.967Z,-10.71
2018-03-01T05:08:26.945Z,-10.65
2018-03-01T05:09:26.914Z,-10.64
2018-03-01T05:10:26.890Z,-10.65
2018-03-01T05:11:26.863Z,-10.69
2018-03-01T05:12:26.834Z,-10.75
2018-03-01T05:13:26.810Z,-10.62
2018-03-01T05:14:26.785Z,-10.78
2018-03-01T05:15:26.757Z,-10.75
2018-03-01T05:16:26.736Z,-10.73
2018-03-01T05:17:26.704Z,-10.75
2018-03-01T05:18:26.681Z,-10.69
2018-03-01T05:19:26.652Z,-10.75
2018-03-01T05:20:26.626Z,-10.75
2018-03-01T05:21:26.597Z,-10.79
2018-03-01T05:22:26.574Z,-10.78
2018-03-01T05:23:26.545Z,-10.73
2018-03-01T05:24:26.518Z,-10.75
2018-03-01T05:25:26.495Z,-10.78
2018-03-01T05:26:26.472Z,-10.76
2018-03-01T05:27:26.439Z,-10.86
2018-03-01T05:28:26.416Z,-10.76
2018-03-01T05:29:26.391Z,-10.75
2018-03-01T05:30:26.362Z,-10.82
2018-03-01T05:31:26.336Z,-10.73
2018-03-01T05:32:26.313Z,-10.75
2018-03-01T05:33:26.286Z,-10.75
2018-03-01T05:34:26.260Z,-10.93
2018-03-01T05:35:26.233Z,-10.83
2018-03-01T05:36:26.207Z,-10.86
2018-03-01T05:37:26.178Z,-10.82
2018-03-01T05:38:26.153Z,-10.86
2018-03-01T05:39:26.180Z,-10.78
2018-03-01T05:40:26.109Z,-10.81
2018-03-01T05:41:26.070Z,-10.83
2018-03-01T05:42:26.051Z,-10.83
2018-03-01T05:43:26.024Z,-10.93
2018-03-01T05:44:25.996Z,-10.82
2018-03-01T05:45:25.972Z,-10.91
2018-03-01T05:46:25.947Z,-10.83
2018-03-01T05:47:26.014Z,-10.86
2018-03-01T05:48:25.887Z,-10.90
2018-03-01T05:49:25.866Z,-10.73
2018-03-01T05:50:25.837Z,-10.79
2018-03-01T05:51:25.809Z,-10.81
2018-03-01T05:52:25.786Z,-10.79
2018-03-01T05:53:25.770Z,-10.86
2018-03-01T05:54:25.725Z,-10.78
2018-03-01T05:55:25.698Z,-10.81
2018-03-01T05:56:25.686Z,-10.79
2018-03-01T05:57:25.646Z,-10.82
2018-03-01T05:58:25.622Z,-10.88
2018-03-01T05:59:25.606Z,-10.82
2018-03-01T06:00:25.576Z,-10.86
2018-03-01T06:01:25.542Z,-10.81
2018-03-01T06:02:25.517Z,-10.88
2018-03-01T06:03:25.492Z,-10.76
2018-03-01T06:04:25.463Z,-10.83
2018-03-01T06:05:25.433Z,-10.82
2018-03-01T06:06:25.408Z,-10.88
2018-03-01T06:07:25.382Z,-10.93
2018-03-01T06:08:25.354Z,-10.93
2018-03-01T06:09:25.352Z,-10.93
2018-03-01T06:10:25.307Z,-10.79
2018-03-01T06:11:25.276Z,-10.90
2018-03-01T06:12:25.251Z,-10.93
2018-03-01T06:13:25.225Z,-10.79
2018-03-01T06:14:25.201Z,-10.73
2018-03-01T06:15:25.173Z,-10.79
2018-03-01T06:16:25.150Z,-10.82
2018-03-01T06:17:25.120Z,-10.88
2018-03-01T06:18:25.093Z,-10.76
2018-03-01T06:19:25.063Z,-10.75
2018-03-01T06:20:25.040Z,-10.81
2018-03-01T06:21:25.015Z,-10.76
2018-03-01T06:22:24.987Z,-10.72
2018-03-01T06:23:24.963Z,-10.78
2018-03-01T06:24:24.933Z,-10.72
2018-03-01T06:25:24.914Z,-10.73
2018-03-01T06:26:24.892Z,-10.78
2018-03-01T06:27:24.851Z,-10.71
2018-03-01T06:28:24.829Z,-10.72
2018-03-01T06:29:24.831Z,-10.64
2018-03-01T06:30:24.775Z,-10.65
2018-03-01T06:31:24.757Z,-10.62
2018-03-01T06:32:24.725Z,-10.62
2018-03-01T06:33:24.700Z,-10.58
2018-03-01T06:34:24.673Z,-10.54
2018-03-01T06:35:24.647Z,-10.43
2018-03-01T06:36:24.628Z,-10.52
2018-03-01T06:37:24.588Z,-10.52
2018-03-01T06:38:24.563Z,-10.52
2018-03-01T06:39:24.533Z,-10.51
2018-03-01T06:40:24.510Z,-10.40
2018-03-01T06:41:24.485Z,-10.41
2018-03-01T06:42:24.455Z,-10.31
2018-03-01T06:43:24.428Z,-10.26
2018-03-01T06:44:24.401Z,-10.23
2018-03-01T06:45:24.374Z,-10.26
2018-03-01T06:46:24.351Z,-10.12
2018-03-01T06:47:24.325Z,-10.23
2018-03-01T06:48:24.295Z,-10.15
2018-03-01T06:49:24.271Z,-10.21
2018-03-01T06:50:24.245Z,-10.13
2018-03-01T06:51:24.320Z,-10.08
2018-03-01T06:52:24.193Z,-10.07
2018-03-01T06:53:24.165Z,-10.16
2018-03-01T06:54:24.142Z,-10.10
2018-03-01T06:55:24.113Z,-10.02
2018-03-01T06:56:24.087Z,-9.98
2018-03-01T06:57:24.060Z,-9.94
2018-03-01T06:58:24.035Z,-9.98
2018-03-01T06:59:24.010Z,-9.97
2018-03-01T07:00:23.986Z,-9.87
2018-03-01T07:01:23.954Z,-9.84
2018-03-01T07:02:23.930Z,-9.77
2018-03-01T07:03:23.904Z,-9.74
2018-03-01T07:04:23.875Z,-9.77
2018-03-01T07:05:23.851Z,-9.72
2018-03-01T07:06:23.825Z,-9.68
2018-03-01T07:07:23.796Z,-9.66
2018-03-01T07:08:23.768Z,-9.62
2018-03-01T07:09:23.753Z,-9.63
2018-03-01T07:10:23.718Z,-9.63
2018-03-01T07:11:23.692Z,-9.63
2018-03-01T07:12:23.668Z,-9.54
2018-03-01T07:13:23.645Z,-9.52
2018-03-01T07:14:23.612Z,-9.52
2018-03-01T07:15:23.586Z,-9.47
2018-03-01T07:16:23.562Z,-9.41
2018-03-01T07:17:23.536Z,-9.47
2018-03-01T07:18:23.509Z,-9.39
2018-03-01T07:19:23.490Z,-9.45
2018-03-01T07:20:23.459Z,-9.36
2018-03-01T07:21:23.429Z,-9.32
2018-03-01T07:22:23.404Z,-9.29
2018-03-01T07:23:23.382Z,-9.32
2018-03-01T07:24:23.354Z,-9.25
2018-03-01T07:25:23.325Z,-9.22
2018-03-01T07:26:23.304Z,-9.28
2018-03-01T07:27:23.272Z,-9.11
2018-03-01T07:28:23.248Z,-9.11
2018-03-01T07:29:23.227Z,-9.05
2018-03-01T07:30:23.197Z,-9.01
2018-03-01T07:31:23.171Z,-9.02
2018-03-01T07:32:23.143Z,-9.07
2018-03-01T07:33:23.122Z,-9.04
2018-03-01T07:34:23.094Z,-8.98
2018-03-01T07:35:23.071Z,-8.93
2018-03-01T07:36:23.040Z,-8.81
2018-03-01T07:37:23.013Z,-8.72
2018-03-01T07:38:23.001Z,-8.62
2018-03-01T07:39:22.965Z,-8.57
2018-03-01T07:40:22.940Z,-8.54
2018-03-01T07:41:22.919Z,-8.54
2018-03-01T07:42:22.895Z,-8.52
2018-03-01T07:43:22.860Z,-8.47
2018-03-01T07:44:22.891Z,-8.37
2018-03-01T07:45:22.807Z,-8.39
2018-03-01T07:46:22.786Z,-8.36
2018-03-01T07:47:22.761Z,-8.29
2018-03-01T07:48:22.734Z,-8.26
2018-03-01T07:49:22.706Z,-8.09
2018-03-01T07:50:22.681Z,-8.16
2018-03-01T07:51:22.658Z,-8.01
2018-03-01T07:52:22.631Z,-7.96
2018-03-01T07:53:22.609Z,-7.89
2018-03-01T07:54:22.586Z,-7.83
2018-03-01T07:55:22.553Z,-7.80
2018-03-01T07:56:22.537Z,-7.75
2018-03-01T07:57:22.551Z,-7.79
2018-03-01T07:58:22.482Z,-7.75
2018-03-01T07:59:22.461Z,-7.61
2018-03-01T08:00:22.432Z,-7.51
2018-03-01T08:01:22.404Z,-7.51
2018-03-01T08:02:22.378Z,-7.57
2018-03-01T08:03:22.351Z,-7.44
2018-03-01T08:04:22.383Z,-7.43
2018-03-01T08:05:22.303Z,-7.44
2018-03-01T08:06:22.275Z,-7.39
2018-03-01T08:07:22.255Z,-7.44
2018-03-01T08:08:22.229Z,-7.40
2018-03-01T08:09:22.206Z,-7.31
2018-03-01T08:10:22.181Z,-7.31
2018-03-01T08:11:22.153Z,-7.29
2018-03-01T08:12:22.125Z,-7.31
2018-03-01T08:13:22.099Z,-7.19
2018-03-01T08:14:22.082Z,-7.19
2018-03-01T08:15:22.056Z,-7.11
2018-03-01T08:16:22.025Z,-7.15
2018-03-01T08:17:22.002Z,-7.02
2018-03-01T08:18:21.980Z,-7.05
2018-03-01T08:19:21.949Z,-6.94
2018-03-01T08:20:21.932Z,-6.98
2018-03-01T08:21:21.901Z,-7.08
2018-03-01T08:22:21.878Z,-6.95
2018-03-01T08:23:21.852Z,-7.00
2018-03-01T08:24:21.921Z,-6.89
2018-03-01T08:25:21.831Z,-6.82
2018-03-01T08:26:21.783Z,-6.68
2018-03-01T08:27:21.752Z,-6.66
2018-03-01T08:28:21.780Z,-6.52
2018-03-01T08:29:21.703Z,-6.47
2018-03-01T08:30:21.683Z,-6.37
2018-03-01T08:31:21.684Z,-6.25
2018-03-01T08:32:21.631Z,-6.13
2018-03-01T08:33:21.608Z,-6.00
2018-03-01T08:34:21.636Z,-5.83
2018-03-01T08:35:21.560Z,-5.64
2018-03-01T08:36:21.534Z,-5.53
2018-03-01T08:37:21.510Z,-5.30
2018-03-01T08:38:21.523Z,-5.07
2018-03-01T08:39:21.463Z,-4.96
2018-03-01T08:40:21.476Z,-4.57
2018-03-01T08:41:21.424Z,-4.28
2018-03-01T08:42:21.392Z,-3.88
2018-03-01T08:43:21.368Z,-3.75
2018-03-01T08:44:21.352Z,-3.59
2018-03-01T08:45:21.320Z,-3.46
2018-03-01T08:46:21.296Z,-3.28
2018-03-01T08:47:21.284Z,-3.12
2018-03-01T08:48:21.251Z,-3.03
2018-03-01T08:49:21.231Z,-2.88
2018-03-01T08:50:21.206Z,-2.81
2018-03-01T08:51:21.183Z,-2.85
2018-03-01T08:52:21.162Z,-2.67
2018-03-01T08:53:21.140Z,-2.60
2018-03-01T08:54:21.118Z,-2.52
2018-03-01T08:55:21.101Z,-2.52
2018-03-01T08:56:21.073Z,-2.45
2018-03-01T08:57:21.051Z,-2.40
2018-03-01T08:58:21.029Z,-2.63
2018-03-01T08:59:21.010Z,-2.39
2018-03-01T09:00:20.987Z,-2.40
2018-03-01T09:01:21.066Z,-2.37
2018-03-01T09:02:20.950Z,-2.50
2018-03-01T09:03:20.929Z,-2.56
2018-03-01T09:04:20.910Z,-2.50
2018-03-01T09:05:20.896Z,-2.40
2018-03-01T09:06:20.864Z,-2.37
2018-03-01T09:07:20.844Z,-2.30
2018-03-01T09:08:20.832Z,-2.40
2018-03-01T09:09:20.815Z,-2.35
2018-03-01T09:10:20.789Z,-2.35
2018-03-01T09:11:20.764Z,-2.49
2018-03-01T09:12:20.746Z,-2.68
2018-03-01T09:13:20.726Z,-2.74
2018-03-01T09:14:20.710Z,-2.92
2018-03-01T09:15:20.685Z,-2.92
2018-03-01T09:16:20.674Z,-2.85
2018-03-01T09:17:20.656Z,-2.67
2018-03-01T09:18:20.634Z,-2.71
2018-03-01T09:19:20.613Z,-2.70
2018-03-01T09:20:20.592Z,-2.50
2018-03-01T09:21:20.574Z,-2.37
2018-03-01T09:22:20.559Z,-2.34
2018-03-01T09:23:20.535Z,-2.30
2018-03-01T09:24:20.516Z,-2.35
2018-03-01T09:25:20.498Z,-2.13
2018-03-01T09:26:20.487Z,-2.10
2018-03-01T09:27:20.463Z,-1.98
2018-03-01T09:28:20.450Z,-1.76
2018-03-01T09:29:20.425Z,-1.46
2018-03-01T09:30:20.404Z,-1.23
2018-03-01T09:31:20.394Z,-1.23
2018-03-01T09:32:20.370Z,-1.22
2018-03-01T09:33:20.351Z,-1.25
2018-03-01T09:34:20.334Z,-1.23
2018-03-01T09:35:20.319Z,-1.15
2018-03-01T09:36:20.304Z,-1.04
2018-03-01T09:37:20.283Z,-0.85
2018-03-01T09:38:20.267Z,-0.79
2018-03-01T09:39:20.242Z,-0.58
2018-03-01T09:40:20.235Z,-0.40
2018-03-01T09:41:20.209Z,-0.44
2018-03-01T09:42:20.192Z,-0.46
2018-03-01T09:43:20.181Z,-0.54
2018-03-01T09:44:20.168Z,-0.62
2018-03-01T09:45:20.146Z,-0.60
2018-03-01T09:46:20.133Z,-0.39
2018-03-01T09:47:20.113Z,-0.22
2018-03-01T09:48:20.096Z,-0.03
2018-03-01T09:49:20.086Z,0.20
2018-03-01T09:50:20.069Z,0.41
2018-03-01T09:51:20.052Z,0.50
2018-03-01T09:52:20.042Z,0.72
2018-03-01T09:53:20.026Z,0.86
2018-03-01T09:54:20.013Z,1.08
2018-03-01T09:55:19.997Z,1.15
2018-03-01T09:56:20.077Z,1.37
2018-03-01T09:57:19.966Z,1.36
2018-03-01T09:58:19.965Z,1.45
2018-03-01T09:59:19.942Z,1.77
2018-03-01T10:00:19.929Z,1.81
2018-03-01T10:01:19.913Z,1.99
2018-03-01T10:02:19.919Z,1.93
2018-03-01T10:03:19.891Z,1.81
2018-03-01T10:04:19.934Z,1.99
2018-03-01T10:05:19.866Z,2.27
2018-03-01T10:06:19.875Z,2.41
2018-03-01T10:07:19.848Z,2.66
2018-03-01T10:08:19.871Z,2.97
2018-03-01T10:09:19.826Z,3.32
2018-03-01T10:10:19.817Z,3.33
2018-03-01T10:11:19.803Z,3.55
2018-03-01T10:12:19.795Z,3.55
2018-03-01T10:13:19.788Z,3.76
2018-03-01T10:14:19.831Z,3.79
2018-03-01T10:15:19.771Z,3.90
2018-03-01T10:16:19.766Z,3.98
2018-03-01T10:17:19.761Z,4.05
2018-03-01T10:18:19.746Z,4.18
2018-03-01T10:19:19.737Z,4.32
2018-03-01T10:20:19.734Z,4.06
2018-03-01T10:21:19.721Z,3.94
2018-03-01T10:22:19.718Z,3.87
2018-03-01T10:23:19.711Z,3.98
2018-03-01T10:24:19.706Z,3.86
2018-03-01T10:25:19.706Z,3.87
2018-03-01T10:26:19.692Z,3.94
2018-03-01T10:27:19.684Z,3.78
2018-03-01T10:28:19.683Z,3.80
2018-03-01T10:29:19.676Z,4.23
2018-03-01T10:30:19.668Z,4.50
2018-03-01T10:31:19.670Z,4.80
2018-03-01T10:32:19.656Z,4.70
2018-03-01T10:33:19.657Z,4.62
2018-03-01T10:34:19.649Z,4.77
2018-03-01T10:35:19.641Z,5.00
2018-03-01T10:36:19.635Z,5.07
2018-03-01T10:37:19.635Z,5.10
2018-03-01T10:38:19.625Z,4.88
2018-03-01T10:39:19.620Z,4.65
2018-03-01T10:40:19.623Z,4.60
2018-03-01T10:41:19.671Z,4.80
2018-03-01T10:42:19.610Z,5.03
2018-03-01T10:43:19.605Z,5.17
2018-03-01T10:44:19.598Z,5.51
2018-03-01T10:45:19.601Z,5.38
2018-03-01T10:46:19.591Z,5.58
2018-03-01T10:47:19.596Z,5.83
2018-03-01T10:48:19.584Z,5.86
2018-03-01T10:49:19.584Z,5.57
2018-03-01T10:50:19.579Z,5.56
2018-03-01T10:51:19.625Z,5.56
2018-03-01T10:52:19.571Z,5.58
2018-03-01T10:53:19.580Z,5.82
2018-03-01T10:54:19.566Z,6.08
2018-03-01T10:55:19.564Z,6.17
2018-03-01T10:56:19.562Z,6.09
2018-03-01T10:57:19.566Z,6.09
2018-03-01T10:58:19.555Z,6.18
2018-03-01T10:59:19.651Z,6.34
2018-03-01T11:00:19.554Z,6.12
2018-03-01T11:01:19.551Z,6.03
2018-03-01T11:02:19.546Z,5.94
2018-03-01T11:03:19.547Z,6.08
2018-03-01T11:04:19.543Z,5.90
2018-03-01T11:05:19.542Z,5.93
2018-03-01T11:06:19.538Z,5.93
2018-03-01T11:07:19.535Z,5.89
2018-03-01T11:08:19.536Z,5.89
2018-03-01T11:09:19.540Z,5.79
2018-03-01T11:10:19.589Z,6.00
2018-03-01T11:11:19.532Z,6.25
2018-03-01T11:12:19.600Z,6.12
2018-03-01T11:13:19.527Z,6.06
2018-03-01T11:14:19.616Z,5.68
2018-03-01T11:15:19.526Z,5.91
2018-03-01T11:16:19.529Z,6.41
2018-03-01T11:17:19.529Z,6.40
2018-03-01T11:18:19.608Z,6.44
2018-03-01T11:19:19.518Z,6.58
2018-03-01T11:20:19.536Z,6.66
2018-03-01T11:21:19.518Z,6.61
2018-03-01T11:22:19.521Z,6.91
2018-03-01T11:23:19.533Z,6.92
2018-03-01T11:24:19.512Z,6.91
2018-03-01T11:25:19.510Z,7.07
2018-03-01T11:26:19.508Z,7.35
2018-03-01T11:27:19.511Z,7.55
2018-03-01T11:28:19.518Z,7.50
2018-03-01T11:29:19.508Z,7.35
2018-03-01T11:30:19.516Z,6.99
2018-03-01T11:31:19.506Z,7.06
2018-03-01T11:32:19.509Z,7.24
2018-03-01T11:33:19.511Z,7.27
2018-03-01T11:34:19.506Z,7.52
2018-03-01T11:35:19.518Z,7.13
2018-03-01T11:36:19.507Z,7.12
2018-03-01T11:37:19.505Z,6.85
2018-03-01T11:38:19.509Z,6.81
2018-03-01T11:39:19.570Z,6.54
2018-03-01T11:40:19.508Z,6.88
2018-03-01T11:41:19.514Z,6.87
2018-03-01T11:42:19.505Z,7.12
2018-03-01T11:43:19.561Z,7.39
2018-03-01T11:44:19.500Z,7.64
2018-03-01T11:45:19.510Z,7.60
2018-03-01T11:46:19.500Z,7.50
2018-03-01T11:47:19.571Z,7.32
2018-03-01T11:48:19.500Z,7.28
2018-03-01T11:49:19.504Z,7.06
2018-03-01T11:50:19.502Z,7.13
2018-03-01T11:51:19.503Z,6.87
2018-03-01T11:52:19.505Z,6.84
2018-03-01T11:53:19.495Z,7.12
2018-03-01T11:54:19.496Z,7.10
2018-03-01T11:55:19.499Z,7.09
2018-03-01T11:56:19.496Z,7.13
2018-03-01T11:57:19.506Z,7.10
2018-03-01T11:58:19.493Z,7.35
2018-03-01T11:59:19.491Z,7.46
2018-03-01T12:00:19.491Z,7.52
2018-03-01T12:01:19.491Z,7.87
2018-03-01T12:02:19.491Z,7.85
2018-03-01T12:03:19.488Z,7.72
2018-03-01T12:04:19.489Z,7.85
2018-03-01T12:05:19.488Z,7.86
2018-03-01T12:06:19.489Z,7.89
2018-03-01T12:07:19.488Z,7.98
2018-03-01T12:08:19.485Z,7.93
2018-03-01T12:09:19.485Z,8.02
2018-03-01T12:10:19.490Z,8.05
2018-03-01T12:11:19.485Z,7.95
2018-03-01T12:12:19.523Z,7.80
2018-03-01T12:13:19.483Z,7.83
2018-03-01T12:14:19.492Z,8.00
2018-03-01T12:15:19.484Z,7.85
2018-03-01T12:16:19.511Z,7.98
2018-03-01T12:17:19.485Z,7.95
2018-03-01T12:18:19.480Z,8.07
2018-03-01T12:19:19.476Z,8.29
2018-03-01T12:20:19.522Z,8.38
2018-03-01T12:21:19.474Z,8.40
2018-03-01T12:22:19.472Z,8.38
2018-03-01T12:23:19.470Z,8.30
2018-03-01T12:24:19.469Z,8.20
2018-03-01T12:25:19.470Z,8.25
2018-03-01T12:26:19.469Z,8.38
2018-03-01T12:27:19.462Z,8.20
2018-03-01T12:28:19.463Z,8.47
2018-03-01T12:29:19.460Z,8.59
2018-03-01T12:30:19.460Z,8.29
2018-03-01T12:31:19.463Z,8.12
2018-03-01T12:32:19.457Z,7.85
2018-03-01T12:33:19.455Z,7.90
2018-03-01T12:34:19.453Z,8.15
2018-03-01T12:35:19.449Z,7.86
2018-03-01T12:36:19.447Z,7.92
2018-03-01T12:37:19.454Z,7.95
2018-03-01T12:38:19.447Z,7.60
2018-03-01T12:39:19.452Z,7.52
2018-03-01T12:40:19.441Z,7.71
2018-03-01T12:41:19.480Z,7.60
2018-03-01T12:42:19.432Z,7.83
2018-03-01T12:43:19.518Z,8.12
2018-03-01T12:44:19.440Z,8.22
2018-03-01T12:45:19.430Z,8.25
2018-03-01T12:46:19.435Z,8.56
2018-03-01T12:47:19.482Z,8.50
2018-03-01T12:48:19.416Z,8.37
2018-03-01T12:49:19.416Z,8.26
2018-03-01T12:50:19.412Z,8.22
2018-03-01T12:51:19.406Z,8.25
2018-03-01T12:52:19.404Z,8.29